Date,TemperatureHighF,TemperatureAvgF,TemperatureLowF,DewpointHighF,DewpointAvgF,DewpointLowF,HumidityHigh,HumidityAvg,HumidityLow,PressureMaxIn,PressureMinIn,WindSpeedMaxMPH,WindSpeedAvgMPH,GustSpeedMaxMPH,PrecipitationSumIn
2013-4-1,85,66,49,35,28,22,35,24,15,30.08,29.96,13,1,15,0.00
2013-4-2,83,64,49,29,24,19,36,23,11,30.03,29.93,18,2,23,0.00
2013-4-3,85,64,49,34,26,20,35,24,14,30.11,30.01,15,1,15,0.00
2013-4-4,88,66,50,33,26,22,38,24,13,30.16,30.03,10,1,11,0.00
2013-4-5,87,69,53,35,27,19,30,21,15,30.07,29.96,20,1,20,0.00
2013-4-6,85,67,53,38,32,28,40,28,17,30.06,29.94,16,2,17,0.00
2013-4-7,86,68,52,38,32,28,41,28,17,29.99,29.87,14,2,16,0.00
2013-4-8,74,64,52,39,33,27,43,33,22,29.87,29.56,33,8,43,0.49
2013-4-9,61,50,44,35,30,26,61,45,28,29.93,29.65,20,5,20,0.04
2013-4-10,71,54,39,31,26,21,50,34,22,30.03,29.92,15,2,17,0.00
2013-4-11,84,60,41,33,25,18,46,29,14,30.03,29.85,10,1,12,0.00
2013-4-12,79,62,49,31,26,21,34,26,17,29.94,29.83,9,1,12,0.00
2013-4-13,86,66,49,35,28,23,36,25,15,29.95,29.84,12,1,16,0.00
2013-4-14,79,66,56,35,31,27,39,28,18,29.91,29.83,16,4,18,0.00
2013-4-15,81,66,53,36,31,22,38,28,18,29.91,29.84,20,4,21,0.00
2013-4-16,79,66,54,39,30,25,44,28,15,29.92,29.85,17,3,28,0.00
2013-4-17,69,59,48,38,27,12,45,30,20,30.02,29.84,22,4,30,0.04
2013-4-18,76,56,40,24,15,10,30,21,13,30.15,30.01,9,1,13,0.00
2013-4-19,82,58,38,22,13,6,28,18,10,30.19,30.01,10,1,12,0.00
2013-4-20,86,63,42,27,16,7,23,16,10,30.07,29.97,13,1,15,0.00
2013-4-21,91,69,51,30,21,15,25,17,10,30.13,30.02,13,1,14,0.00
2013-4-22,90,70,52,33,23,16,26,17,11,30.08,29.94,15,1,15,0.00
2013-4-23,88,71,57,33,26,18,24,18,14,30.01,29.92,13,2,14,0.00
2013-4-24,89,71,54,35,27,22,30,20,13,30.04,29.95,13,2,14,0.00
2013-4-25,80,68,58,32,25,20,27,20,14,30.11,29.96,22,4,25,0.00
2013-4-26,89,66,47,31,24,17,35,22,10,30.18,30.07,8,0,58,0.00
2013-4-27,92,70,53,34,27,21,31,21,13,30.15,30.01,8,0,16,0.00
2013-4-28,95,73,56,34,25,20,27,17,10,30.05,29.91,8,0,9,0.00
2013-4-29,96,74,56,33,23,15,23,15,10,29.98,29.85,9,0,10,0.00
2013-4-30,92,74,58,34,28,21,25,18,13,29.96,29.88,16,3,18,0.00